« Back
NWS Peachtree City, Ga » Text Product » AHN Terminal Aerodrome Forecast


Printer-friendly Version
Current Version              Previous Versions:   1  2  3  4  5  6  7  8  9  

Terminal Aerodrome Forecast

891
FTAK31 PAJN 010500
TAFAHN
TAF
PAHN 010521Z 0106/0206 10005KT P6SM SKC
     FM010800 00000KT P6SM VCFG SKC
     FM011500 VRB04KT P6SM SKC
     FM012000 12008KT P6SM SKC
     FM020400 10005KT P6SM SKC
      AMD LTD TO CLD VIS AND WIND=



USA.gov is the U.S. government's official web portal to all federal, state and local government web resources and services.